Aérodrome :
LOGIN :

S'inscrire | Disclaimer

   EN    FR    IT 

 










Légende :    VFR   VFR Marginal   IFR   IFR Intensif   IFR Très Intensif
Visi : 
Plafond : 
>= 8 km
>= 3000ft
5 à 8 km
1000 à 3000 ft
1500m à 5 km
500 à 1000 ft
800 à 1500m
200 à 500 ft
< 800m
< 200 ft
Symboles :   Orages  Brouillard  Fortes neiges  Fortes précipitations  Vent > 20 kt
SIGMETs :   Divers  Orages  Givrage  Turbulence  Onde Orograph.  Cendres Volcan.






- Altitude de l'aérodrome : 1791 ft
- Code IATA : AOT


LIMW - Aosta

DERNIER METAR :
  • 150950Z AUTO VRB01KT 9999 NCD 25/12 Q1009

METARs EXPIRÉS :
  • 150920Z AUTO VRB02KT 9999 NCD 22/10 Q1010
  • 150850Z AUTO VRB02KT 9999 NCD 20/12 Q1010
  • 150820Z AUTO 16003KT 140V200 9999 19/11 Q1010
  • 150750Z AUTO VRB01KT 9999 NCD 19/11 Q1010
  • 150720Z AUTO VRB01KT 9999 NCD 18/11 Q1011

TAF TAF LIMW
Valide du 15 à 09h jusqu'au 15 à 18h UTC


150800Z 1509/1518 VRB03KT CAVOK
BECMG 1509/1511 10015KT
TEMPO 1512/1518 TSRA



MET'MAP, la Météo Aéronautique d'un coup d'oeil ! - Copyright ORBIFLY Décembre 2007 - Disclaimer

ORBIFLY MET'MAP TEAM :

Programmation & Développement : Alexandra Zaïnal
Sur une idée originale de : Baudouin d'Aumeries
Soutien technique & logistique : Manuel Goepfert
Assistance : Marc-Olivier Méhu




SOURCES & CREDITS :

   NOAA